Time;durP1;ratioP1;P1;durP2;ratioP2;P2;SDS_P1;SDS_P2;PMS_P1;PMS_P2;Temp;Humidity;BMP_temperature;BMP_pressure;BME280_temperature;BME280_humidity;BME280_pressure;Samples;Min_cycle;Max_cycle;Signal;HPM_P1;HPM_P2
2021/10/10 00:02:23;;;;;;;17.95;8.73;;;;;;;8.76;39.85;101423.53;1713121;84;21324;-75
2021/10/10 00:05:29;;;;;;;26.68;9.10;;;;;;;8.74;40.14;101421.43;1712058;84;21387;-75
2021/10/10 00:08:35;;;;;;;15.93;8.03;;;;;;;8.73;40.13;101421.58;1713119;82;21337;-75
2021/10/10 00:11:40;;;;;;;21.87;8.90;;;;;;;8.74;40.30;101424.16;1713068;84;21198;-76
2021/10/10 00:14:46;;;;;;;12.95;6.62;;;;;;;8.73;40.37;101425.16;1711695;84;21189;-75
2021/10/10 00:17:54;;;;;;;22.07;8.93;;;;;;;8.73;40.49;101421.08;1713098;84;21248;-76
2021/10/10 00:20:59;;;;;;;17.57;8.78;;;;;;;8.72;40.57;101431.62;1712986;84;21244;-75
2021/10/10 00:24:05;;;;;;;15.70;7.40;;;;;;;8.71;40.65;101423.09;1712908;84;21845;-75
2021/10/10 00:27:11;;;;;;;15.25;6.80;;;;;;;8.70;40.83;101426.79;1713047;84;21856;-75
2021/10/10 00:30:17;;;;;;;16.37;7.90;;;;;;;8.67;40.94;101431.18;1713059;84;21301;-75
2021/10/10 00:33:23;;;;;;;15.93;8.08;;;;;;;8.66;41.05;101433.55;1712977;84;21336;-75
2021/10/10 00:36:30;;;;;;;17.67;8.18;;;;;;;8.65;41.12;101429.06;1713112;84;21320;-75
2021/10/10 00:39:36;;;;;;;19.82;7.97;;;;;;;8.63;41.13;101429.22;1712302;84;21869;-74
2021/10/10 00:42:42;;;;;;;14.43;8.13;;;;;;;8.63;41.12;101425.62;1712386;83;21286;-75
2021/10/10 00:45:56;;;;;;;17.32;7.58;;;;;;;8.64;41.06;101431.44;1711531;83;21361;-75
2021/10/10 00:49:02;;;;;;;18.05;8.05;;;;;;;8.62;41.02;101430.23;1712874;83;21329;-75
2021/10/10 00:52:07;;;;;;;19.12;7.85;;;;;;;8.62;41.01;101428.86;1712171;84;21302;-75
2021/10/10 00:55:12;;;;;;;18.25;7.78;;;;;;;8.61;40.90;101428.98;1712557;83;21293;-75
2021/10/10 00:58:18;;;;;;;22.82;8.25;;;;;;;8.63;40.82;101429.72;1712557;83;21790;-75
2021/10/10 01:01:23;;;;;;;19.67;8.03;;;;;;;8.62;40.82;101423.41;1710919;84;21345;-75
2021/10/10 01:04:29;;;;;;;19.95;7.42;;;;;;;8.62;40.82;101427.50;1712269;83;21377;-75
2021/10/10 01:07:35;;;;;;;22.87;8.85;;;;;;;8.61;40.75;101427.61;1711063;83;21337;-76
2021/10/10 01:10:41;;;;;;;15.58;7.87;;;;;;;8.61;40.72;101431.70;1712499;83;21348;-75
2021/10/10 01:13:48;;;;;;;17.75;7.08;;;;;;;8.59;40.73;101434.58;1711937;84;21312;-75
2021/10/10 01:16:55;;;;;;;16.00;8.00;;;;;;;8.60;40.71;101433.56;1710699;84;21295;-74
2021/10/10 01:20:01;;;;;;;21.00;8.00;;;;;;;8.62;40.72;101441.64;1710867;84;21335;-75
2021/10/10 01:23:07;;;;;;;21.75;8.43;;;;;;;8.63;40.63;101437.91;1710572;84;21201;-75
2021/10/10 01:26:13;;;;;;;22.25;8.03;;;;;;;8.62;40.70;101434.81;1711239;84;21354;-75
2021/10/10 01:29:18;;;;;;;23.32;8.30;;;;;;;8.61;40.79;101434.43;1711943;84;21315;-75
2021/10/10 01:32:24;;;;;;;14.20;7.45;;;;;;;8.59;40.75;101440.53;1711789;84;21209;-75
2021/10/10 01:35:30;;;;;;;18.98;8.93;;;;;;;8.58;40.83;101438.81;1710902;84;21768;-75
2021/10/10 01:38:37;;;;;;;18.10;8.78;;;;;;;8.58;40.87;101437.45;1710621;84;21335;-75
2021/10/10 01:41:43;;;;;;;16.85;8.18;;;;;;;8.58;40.99;101437.45;1711923;84;21311;-75
2021/10/10 01:44:50;;;;;;;17.80;7.90;;;;;;;8.55;41.02;101442.66;1712053;84;21366;-75
2021/10/10 01:47:56;;;;;;;17.37;7.92;;;;;;;8.55;41.06;101432.26;1711950;84;21629;-75
2021/10/10 01:51:00;;;;;;;18.12;7.75;;;;;;;8.53;41.07;101434.27;1711165;84;21335;-74
2021/10/10 01:54:07;;;;;;;18.37;7.92;;;;;;;8.53;41.30;101432.41;1711954;84;21319;-75
2021/10/10 01:57:13;;;;;;;20.62;8.20;;;;;;;8.51;41.37;101431.66;1711017;84;21328;-74
2021/10/10 02:00:20;;;;;;;20.20;8.53;;;;;;;8.50;41.44;101428.57;1711796;84;21355;-75
2021/10/10 02:03:26;;;;;;;21.75;8.83;;;;;;;8.48;41.49;101434.67;1711944;84;21229;-75
2021/10/10 02:06:32;;;;;;;16.95;8.20;;;;;;;8.45;41.46;101430.34;1711043;84;21390;-74
2021/10/10 02:09:41;;;;;;;26.23;8.25;;;;;;;8.47;41.59;101434.79;1711779;83;21347;-75
2021/10/10 02:12:48;;;;;;;19.25;7.70;;;;;;;8.44;41.64;101421.80;1712392;83;21181;-74
2021/10/10 02:15:57;;;;;;;17.73;7.20;;;;;;;8.44;41.62;101437.30;1712335;83;21863;-75
2021/10/10 02:19:02;;;;;;;13.95;7.22;;;;;;;8.41;41.58;101435.70;1712208;83;21316;-75
2021/10/10 02:22:08;;;;;;;13.25;7.47;;;;;;;8.41;41.47;101433.47;1711138;83;21395;-75
2021/10/10 02:25:16;;;;;;;15.48;7.62;;;;;;;8.40;41.43;101440.80;1712279;84;21189;-75
2021/10/10 02:28:22;;;;;;;18.35;7.47;;;;;;;8.39;41.38;101443.16;1712745;83;22619;-75
2021/10/10 02:31:27;;;;;;;17.70;7.62;;;;;;;8.38;41.40;101441.44;1712754;83;21839;-74
2021/10/10 02:34:32;;;;;;;14.45;7.55;;;;;;;8.38;41.28;101441.95;1712595;83;21300;-75
2021/10/10 02:37:37;;;;;;;15.30;7.55;;;;;;;8.36;41.27;101441.16;1711046;83;21194;-75
2021/10/10 02:40:42;;;;;;;14.93;7.20;;;;;;;8.35;41.43;101445.75;1713254;83;21181;-75
2021/10/10 02:43:51;;;;;;;13.78;6.78;;;;;;;8.33;41.41;101445.03;1712505;83;21875;-75
2021/10/10 02:46:57;;;;;;;17.25;7.60;;;;;;;8.33;41.48;101445.03;1711816;84;21890;-75
2021/10/10 02:50:04;;;;;;;18.95;7.08;;;;;;;8.33;41.54;101446.41;1713301;83;21276;-75
2021/10/10 02:53:11;;;;;;;17.32;7.35;;;;;;;8.32;41.61;101441.06;1712260;84;21307;-75
2021/10/10 02:56:16;;;;;;;19.82;6.95;;;;;;;8.30;41.76;101438.98;1712304;84;21316;-75
2021/10/10 02:59:22;;;;;;;18.67;7.05;;;;;;;8.29;41.76;101442.72;1712552;83;21800;-75
2021/10/10 03:02:28;;;;;;;12.98;7.20;;;;;;;8.28;41.86;101437.77;1712266;84;21232;-75
2021/10/10 03:05:33;;;;;;;25.25;8.15;;;;;;;8.27;42.05;101434.65;1712411;83;21315;-74
2021/10/10 03:08:39;;;;;;;15.90;8.03;;;;;;;8.25;42.04;101438.02;1711009;83;21358;-75
2021/10/10 03:11:45;;;;;;;12.28;7.03;;;;;;;8.23;42.14;101423.64;1711298;83;21335;-75
2021/10/10 03:14:52;;;;;;;11.55;6.25;;;;;;;8.24;42.22;101430.85;1712045;83;21319;-75
2021/10/10 03:17:59;;;;;;;12.13;6.53;;;;;;;8.23;42.30;101435.91;1711236;84;21213;-75
2021/10/10 03:21:04;;;;;;;17.02;7.17;;;;;;;8.21;42.23;101427.02;1711988;83;21315;-75
2021/10/10 03:24:10;;;;;;;15.45;7.55;;;;;;;8.21;42.32;101427.02;1710604;83;21784;-75
2021/10/10 03:27:16;;;;;;;19.60;7.65;;;;;;;8.21;42.45;101428.38;1711800;83;21347;-75
2021/10/10 03:30:22;;;;;;;14.38;7.35;;;;;;;8.18;42.55;101425.91;1710667;84;21315;-75
2021/10/10 03:33:28;;;;;;;15.38;7.15;;;;;;;8.17;42.63;101420.96;1710597;84;21319;-75
2021/10/10 03:36:34;;;;;;;21.27;8.13;;;;;;;8.17;42.76;101419.59;1710654;84;21309;-75
2021/10/10 03:39:40;;;;;;;14.40;7.22;;;;;;;8.16;42.74;101419.74;1710855;82;21355;-75
2021/10/10 03:42:45;;;;;;;17.25;7.45;;;;;;;8.15;42.80;101417.52;1710918;83;21283;-75
2021/10/10 03:45:51;;;;;;;11.30;6.47;;;;;;;8.16;42.70;101425.20;1712108;83;21276;-75
2021/10/10 03:48:56;;;;;;;21.77;7.65;;;;;;;8.16;42.72;101421.97;1710674;83;21323;-75
2021/10/10 03:52:02;;;;;;;16.85;7.08;;;;;;;8.17;42.67;101421.47;1710758;84;21755;-75
2021/10/10 03:55:20;;;;;;;21.25;7.42;;;;;;;8.17;42.63;101422.83;1712371;83;21197;-75
2021/10/10 03:58:15;;;;;;;13.38;7.10;;;;;;;8.18;42.67;101430.00;1711296;84;21327;-75
2021/10/10 04:01:21;;;;;;;17.15;7.05;;;;;;;8.18;42.79;101425.41;1711370;83;21354;-75
2021/10/10 04:04:30;;;;;;;13.40;7.12;;;;;;;8.19;42.78;101431.75;1712377;84;21354;-75
2021/10/10 04:07:33;;;;;;;20.70;7.62;;;;;;;8.19;42.91;101425.80;1711632;84;21394;-74
2021/10/10 04:10:39;;;;;;;12.88;7.25;;;;;;;8.21;42.96;101433.83;1710733;83;21327;-74
2021/10/10 04:13:45;;;;;;;12.90;6.65;;;;;;;8.22;42.89;101431.46;1716168;83;21327;-74
2021/10/10 04:16:52;;;;;;;21.33;7.15;;;;;;;8.23;42.66;101442.72;1718039;83;21678;-74
2021/10/10 04:19:57;;;;;;;11.38;6.47;;;;;;;8.24;42.54;101435.44;1715643;83;21248;-74
2021/10/10 04:23:03;;;;;;;19.27;6.78;;;;;;;8.25;42.61;101435.30;1715926;83;21331;-74
2021/10/10 04:26:09;;;;;;;12.50;6.47;;;;;;;8.25;42.59;101442.11;1715383;81;21260;-74
2021/10/10 04:29:14;;;;;;;13.65;6.60;;;;;;;8.27;42.58;101434.65;1717002;83;21879;-74
2021/10/10 04:32:20;;;;;;;10.03;5.85;;;;;;;8.28;42.47;101440.48;1715453;83;21768;-74
2021/10/10 04:35:25;;;;;;;15.13;6.47;;;;;;;8.30;42.49;101433.53;1715558;83;21224;-74
2021/10/10 04:38:31;;;;;;;12.33;5.67;;;;;;;8.30;42.47;101438.98;1716010;83;21342;-74
2021/10/10 04:41:37;;;;;;;19.57;6.22;;;;;;;8.30;42.38;101439.84;1717373;83;21240;-74
2021/10/10 04:44:42;;;;;;;12.98;5.83;;;;;;;8.33;42.30;101442.81;1717071;83;21486;-74
2021/10/10 04:47:48;;;;;;;18.25;6.00;;;;;;;8.34;42.26;101439.95;1716763;83;21323;-75
2021/10/10 04:50:55;;;;;;;15.80;5.65;;;;;;;8.34;42.33;101453.58;1716043;82;21743;-75
2021/10/10 04:54:00;;;;;;;13.28;5.62;;;;;;;8.34;42.21;101446.76;1716879;83;21346;-76
2021/10/10 04:57:05;;;;;;;15.65;6.47;;;;;;;8.35;42.23;101445.75;1717102;83;21843;-75
2021/10/10 05:00:11;;;;;;;12.35;5.67;;;;;;;8.36;42.21;101456.16;1715607;83;21239;-75
2021/10/10 05:03:17;;;;;;;11.93;6.03;;;;;;;8.39;42.33;101454.56;1716829;83;21319;-75
2021/10/10 05:06:22;;;;;;;13.48;6.20;;;;;;;8.40;42.46;101459.02;1717187;83;21320;-75
2021/10/10 05:09:28;;;;;;;17.82;6.35;;;;;;;8.41;42.50;101456.65;1716212;83;21351;-75
2021/10/10 05:12:34;;;;;;;13.70;5.97;;;;;;;8.44;42.49;101464.57;1717187;83;21836;-75
2021/10/10 05:15:39;;;;;;;13.15;6.62;;;;;;;8.47;42.34;101468.88;1682573;83;21311;-75
2021/10/10 05:18:45;;;;;;;13.58;6.72;;;;;;;8.48;42.05;101465.17;1680834;83;21252;-75
2021/10/10 05:21:50;;;;;;;15.98;6.70;;;;;;;8.51;42.06;101468.47;1683557;83;21855;-75
2021/10/10 05:24:58;;;;;;;19.62;6.10;;;;;;;8.55;41.98;101484.93;1681463;83;21339;-75
2021/10/10 05:28:02;;;;;;;15.72;6.22;;;;;;;8.59;41.75;101480.08;1681976;85;21306;-75
2021/10/10 05:31:08;;;;;;;16.17;5.87;;;;;;;8.64;41.87;101479.17;1682742;83;21914;-75
2021/10/10 05:34:14;;;;;;;15.45;5.80;;;;;;;8.70;41.74;101482.71;1683399;83;21208;-75
2021/10/10 05:37:19;;;;;;;10.03;5.87;;;;;;;8.74;41.38;101467.80;1682804;83;21366;-75
2021/10/10 05:40:25;;;;;;;10.05;4.90;;;;;;;8.79;41.55;101468.25;1681308;83;21363;-75
2021/10/10 05:43:30;;;;;;;10.78;5.22;;;;;;;8.85;41.46;101467.73;1681964;85;22575;-75
2021/10/10 05:46:36;;;;;;;12.47;5.67;;;;;;;8.89;41.44;101475.12;1684221;83;21311;-75
2021/10/10 05:49:41;;;;;;;10.82;5.33;;;;;;;8.94;41.36;101458.72;1681607;83;21411;-75
2021/10/10 05:52:49;;;;;;;13.93;5.80;;;;;;;9.01;41.24;101466.34;1681051;83;21759;-75
2021/10/10 05:56:01;;;;;;;13.53;5.60;;;;;;;9.06;40.88;101465.43;1681061;85;21228;-75
2021/10/10 05:59:08;;;;;;;13.15;6.10;;;;;;;9.10;40.97;101470.98;1684127;83;21302;-75
2021/10/10 06:02:12;;;;;;;10.05;5.55;;;;;;;9.16;40.92;101463.59;1684239;83;21739;-75
2021/10/10 06:05:19;;;;;;;11.80;5.53;;;;;;;9.22;40.35;101471.21;1682975;83;21867;-75
2021/10/10 06:08:24;;;;;;;12.93;5.87;;;;;;;9.29;40.39;101479.22;1682978;83;21759;-76
2021/10/10 06:11:31;;;;;;;17.90;5.03;;;;;;;9.33;40.39;101471.12;1681982;85;21311;-75
2021/10/10 06:14:36;;;;;;;18.85;5.95;;;;;;;9.39;40.47;101457.40;1705473;81;21843;-75
2021/10/10 06:17:43;;;;;;;10.85;5.58;;;;;;;9.48;40.23;101472.94;1740278;82;21739;-75
2021/10/10 06:20:48;;;;;;;15.18;5.50;;;;;;;9.62;39.59;101467.58;1739675;82;21236;-75
2021/10/10 06:23:54;;;;;;;11.43;6.05;;;;;;;9.77;39.94;101463.41;1739177;81;21612;-75
2021/10/10 06:27:00;;;;;;;11.12;5.78;;;;;;;9.95;39.73;101470.39;1740067;81;21713;-75
2021/10/10 06:30:06;;;;;;;17.20;5.53;;;;;;;10.13;39.13;101480.10;1740002;81;21379;-75
2021/10/10 06:33:11;;;;;;;11.55;5.28;;;;;;;10.30;38.89;101471.17;1740234;81;21834;-76
2021/10/10 06:36:20;;;;;;;11.95;6.58;;;;;;;10.47;37.67;101485.98;1740168;82;21303;-76
2021/10/10 06:39:23;;;;;;;16.52;6.22;;;;;;;10.60;37.08;101479.69;1739131;80;21224;-76
2021/10/10 06:42:30;;;;;;;13.15;6.55;;;;;;;10.66;36.80;101492.77;1739181;82;21298;-76
2021/10/10 06:45:36;;;;;;;15.23;6.33;;;;;;;10.69;36.60;101481.54;1740173;82;21306;-75
2021/10/10 06:48:41;;;;;;;12.95;7.15;;;;;;;10.70;36.85;101474.19;1740197;81;21296;-76
2021/10/10 06:51:49;;;;;;;18.32;6.33;;;;;;;10.70;36.42;101474.19;1739311;81;21220;-76
2021/10/10 06:54:55;;;;;;;12.73;6.10;;;;;;;10.71;36.61;101482.75;1740197;81;21771;-75
2021/10/10 06:58:02;;;;;;;17.07;7.37;;;;;;;10.73;36.53;101480.74;1740208;81;21320;-76
2021/10/10 07:01:08;;;;;;;16.40;6.95;;;;;;;10.70;37.13;101483.77;1741927;81;21255;-76
2021/10/10 07:04:13;;;;;;;18.67;7.55;;;;;;;10.70;37.37;101482.40;1740949;81;21311;-75
2021/10/10 07:07:19;;;;;;;15.88;6.40;;;;;;;10.75;37.46;101480.08;1740502;81;21182;-76
2021/10/10 07:10:25;;;;;;;16.05;6.67;;;;;;;10.83;37.26;101487.04;1739430;81;21362;-76
2021/10/10 07:13:32;;;;;;;15.83;7.70;;;;;;;10.92;36.67;101489.39;1739332;81;21196;-76
2021/10/10 07:16:42;;;;;;;21.65;8.85;;;;;;;10.99;36.29;101485.88;1740206;81;21330;-76
2021/10/10 07:19:55;;;;;;;20.55;7.72;;;;;;;11.05;35.61;101486.29;1738939;81;21798;-75
2021/10/10 07:23:11;;;;;;;21.48;8.55;;;;;;;11.11;35.52;101480.23;1740202;82;21192;-75
2021/10/10 07:26:04;;;;;;;16.62;8.55;;;;;;;11.20;35.21;101476.08;1739853;82;21847;-75
2021/10/10 07:29:11;;;;;;;16.62;9.33;;;;;;;11.28;35.34;101475.30;1740153;82;21842;-76
2021/10/10 07:32:17;;;;;;;21.30;9.48;;;;;;;11.41;34.61;101479.05;1738937;82;21196;-75
2021/10/10 07:35:23;;;;;;;17.27;8.20;;;;;;;11.58;34.05;101477.37;1740095;82;21723;-75
2021/10/10 07:38:29;;;;;;;32.20;8.35;;;;;;;11.69;33.17;101479.36;1738826;82;21501;-76
2021/10/10 07:41:38;;;;;;;17.30;8.08;;;;;;;11.80;33.07;101472.78;1739476;82;21815;-76
2021/10/10 07:44:49;;;;;;;22.95;7.90;;;;;;;11.90;32.37;101465.88;1739851;82;21823;-77
2021/10/10 07:47:51;;;;;;;18.92;7.60;;;;;;;11.94;32.55;101462.67;1740154;82;21704;-75
2021/10/10 07:50:58;;;;;;;27.07;8.50;;;;;;;11.96;32.63;101470.25;1740062;82;21268;-76
2021/10/10 07:54:04;;;;;;;18.55;7.85;;;;;;;12.02;33.05;101459.16;1740457;82;21299;-76
2021/10/10 07:57:11;;;;;;;18.92;8.18;;;;;;;12.10;32.50;101463.34;1739518;82;21392;-76
2021/10/10 08:00:17;;;;;;;26.02;7.35;;;;;;;12.15;32.78;101478.81;1738699;82;21322;-76
2021/10/10 08:03:23;;;;;;;12.95;7.08;;;;;;;12.18;32.99;101474.36;1740178;82;21800;-75
2021/10/10 08:06:29;;;;;;;30.17;7.90;;;;;;;12.17;33.20;101459.45;1740229;82;21768;-75
2021/10/10 08:09:35;;;;;;;15.23;6.95;;;;;;;12.15;32.69;101455.50;1740916;82;21343;-76
2021/10/10 08:12:40;;;;;;;17.45;8.15;;;;;;;12.11;32.92;101465.06;1739128;82;21339;-75
2021/10/10 08:15:47;;;;;;;15.80;6.85;;;;;;;12.04;33.41;101461.22;1740305;82;21188;-76
2021/10/10 08:18:52;;;;;;;14.55;7.28;;;;;;;11.98;33.60;101453.12;1740203;82;21879;-76
2021/10/10 08:21:57;;;;;;;17.10;7.10;;;;;;;11.96;33.79;101457.91;1738790;82;21316;-75
2021/10/10 08:25:07;;;;;;;16.70;7.00;;;;;;;11.94;33.95;101465.41;1740197;82;21842;-75
2021/10/10 08:28:11;;;;;;;13.13;6.58;;;;;;;11.94;34.41;101457.70;1739223;82;21319;-75
2021/10/10 08:31:16;;;;;;;29.95;7.50;;;;;;;11.96;34.51;101455.17;1740145;82;22548;-74
2021/10/10 08:34:22;;;;;;;12.15;6.12;;;;;;;12.00;34.40;101460.70;1740072;82;21758;-75
2021/10/10 08:37:28;;;;;;;12.75;6.25;;;;;;;12.02;34.69;101450.41;1740196;82;21298;-74
2021/10/10 08:40:35;;;;;;;26.02;7.45;;;;;;;12.11;34.37;101451.86;1740177;82;21831;-74
2021/10/10 08:43:42;;;;;;;12.15;6.80;;;;;;;12.12;34.46;101450.32;1738997;82;21331;-75
2021/10/10 08:46:49;;;;;;;20.23;6.55;;;;;;;12.20;34.40;101442.69;1740358;82;21316;-75
2021/10/10 08:49:54;;;;;;;19.10;6.53;;;;;;;12.31;34.23;101454.76;1740099;82;21942;-75
2021/10/10 08:53:02;;;;;;;28.42;6.10;;;;;;;12.38;34.19;101440.77;1739065;82;21347;-75
2021/10/10 08:56:08;;;;;;;13.88;6.78;;;;;;;12.46;34.44;101440.80;1740752;82;21303;-74
2021/10/10 08:59:13;;;;;;;10.23;5.78;;;;;;;12.61;34.40;101441.09;1738744;82;21332;-74
2021/10/10 09:02:21;;;;;;;9.63;5.28;;;;;;;12.74;33.84;101441.48;1740953;82;21835;-75
2021/10/10 09:05:28;;;;;;;14.73;5.97;;;;;;;12.83;34.02;101437.42;1740148;82;21173;-75
2021/10/10 09:08:34;;;;;;;19.48;7.03;;;;;;;12.99;33.79;101427.91;1740111;82;21604;-74
2021/10/10 09:11:51;;;;;;;15.43;9.40;;;;;;;13.13;33.34;101428.65;1740195;82;21224;-75
2021/10/10 09:14:58;;;;;;;16.17;8.35;;;;;;;13.32;32.11;101428.92;1738677;81;21192;-75
2021/10/10 09:18:07;;;;;;;18.65;8.08;;;;;;;13.53;28.34;101429.30;1738838;81;21359;-74
2021/10/10 09:21:29;;;;;;;14.58;8.10;;;;;;;13.64;27.89;101432.23;1732326;83;21320;-75
2021/10/10 09:24:34;;;;;;;16.42;7.80;;;;;;;13.73;27.69;101439.98;1732853;83;21239;-74
2021/10/10 09:27:40;;;;;;;24.27;7.75;;;;;;;13.83;27.32;101442.58;1712122;84;21319;-74
2021/10/10 09:31:07;;;;;;;19.12;7.55;;;;;;;13.93;27.00;101435.05;1708545;82;21300;-74
2021/10/10 09:34:12;;;;;;;15.60;7.87;;;;;;;13.99;26.99;101431.08;1710427;84;21225;-75
2021/10/10 09:37:32;;;;;;;12.60;7.80;;;;;;;14.06;27.29;101436.22;1732130;83;21359;-74
2021/10/10 09:40:47;;;;;;;18.00;7.50;;;;;;;14.16;27.47;101440.70;1693037;83;21382;-75
2021/10/10 09:47:33;;;;;;;21.05;7.72;;;;;;;14.30;27.27;101425.75;1669166;84;21311;-75
2021/10/10 09:50:40;;;;;;;20.50;8.88;;;;;;;14.32;27.29;101436.06;1729869;83;21348;-76
2021/10/10 09:53:47;;;;;;;11.88;6.87;;;;;;;14.33;27.42;101430.03;1710655;84;21213;-75
2021/10/10 09:57:13;;;;;;;15.93;6.53;;;;;;;14.38;27.10;101435.88;1732403;83;21173;-75
2021/10/10 10:00:33;;;;;;;13.32;6.20;;;;;;;14.39;27.10;101436.20;1711619;84;21887;-75
2021/10/10 10:03:38;;;;;;;20.20;6.87;;;;;;;14.44;27.08;101432.94;1730514;83;21266;-75
2021/10/10 10:06:45;;;;;;;17.25;6.85;;;;;;;14.52;27.09;101426.94;1711423;84;21308;-76
2021/10/10 10:09:50;;;;;;;11.60;5.92;;;;;;;14.62;27.15;101424.51;1731751;83;21181;-75
2021/10/10 10:12:55;;;;;;;18.02;6.78;;;;;;;14.71;26.87;101416.05;1711510;84;21334;-75
2021/10/10 10:16:00;;;;;;;8.60;5.03;;;;;;;14.74;26.98;101424.48;1731970;83;21323;-75
2021/10/10 10:19:06;;;;;;;10.72;5.30;;;;;;;14.73;26.96;101420.02;1699533;84;21407;-76
2021/10/10 10:22:12;;;;;;;14.40;5.92;;;;;;;14.74;27.27;101421.73;1719005;83;21605;-74
2021/10/10 10:25:17;;;;;;;10.48;6.00;;;;;;;14.78;26.56;101418.97;1727429;83;21189;-75
2021/10/10 10:28:22;;;;;;;16.60;5.90;;;;;;;14.82;26.79;101421.72;1719027;83;21851;-75
2021/10/10 10:31:28;;;;;;;11.20;5.47;;;;;;;14.86;26.52;101417.55;1726897;83;21844;-75
2021/10/10 10:34:38;;;;;;;19.30;6.03;;;;;;;14.86;26.67;101413.41;1718114;83;21280;-75
2021/10/10 10:37:59;;;;;;;11.28;4.90;;;;;;;14.85;26.88;101419.97;1726925;83;21301;-75
2021/10/10 10:41:05;;;;;;;13.75;5.30;;;;;;;14.91;26.83;101415.11;1719163;83;21205;-75
2021/10/10 10:44:11;;;;;;;10.80;5.03;;;;;;;14.93;26.58;101409.45;1726535;83;21416;-75
2021/10/10 10:47:30;;;;;;;9.93;4.58;;;;;;;14.93;26.83;101409.45;1719073;83;21200;-75
2021/10/10 10:50:44;;;;;;;10.45;4.78;;;;;;;14.95;26.85;101408.73;1727627;83;21313;-75
2021/10/10 10:53:50;;;;;;;14.35;4.70;;;;;;;14.93;26.90;101417.19;1718806;83;21887;-75
2021/10/10 10:56:56;;;;;;;10.93;4.78;;;;;;;14.91;27.06;101408.23;1727313;83;21299;-75
2021/10/10 11:00:12;;;;;;;11.30;4.95;;;;;;;14.92;27.05;101411.88;1718364;83;21863;-75
2021/10/10 11:03:26;;;;;;;9.63;4.65;;;;;;;14.93;26.77;101410.30;1727384;83;22594;-75
2021/10/10 11:06:32;;;;;;;8.38;5.10;;;;;;;14.98;27.04;101416.13;1719211;83;21871;-75
2021/10/10 11:09:38;;;;;;;21.80;5.42;;;;;;;15.05;26.96;101412.98;1723432;83;21225;-75
2021/10/10 11:12:45;;;;;;;8.30;5.30;;;;;;;15.12;27.04;101413.67;1716460;83;21867;-75
2021/10/10 11:16:01;;;;;;;13.43;5.95;;;;;;;15.18;27.26;101409.66;1725908;83;21237;-75
2021/10/10 11:19:15;;;;;;;15.32;5.78;;;;;;;15.22;27.44;101400.00;1719237;83;21315;-75
2021/10/10 11:22:28;;;;;;;9.20;4.90;;;;;;;15.27;26.92;101404.98;1722136;83;21291;-75
2021/10/10 11:25:41;;;;;;;12.60;5.10;;;;;;;15.26;26.51;101399.98;1718499;83;21212;-76
2021/10/10 11:29:04;;;;;;;10.80;5.33;;;;;;;15.27;26.08;101397.56;1735461;82;21217;-74
2021/10/10 11:32:11;;;;;;;16.73;5.92;;;;;;;15.30;26.36;101399.97;1735426;83;21890;-76
2021/10/10 11:35:16;;;;;;;10.82;6.30;;;;;;;15.32;26.28;101402.01;1703818;83;21300;-76
2021/10/10 11:38:22;;;;;;;14.70;5.87;;;;;;;15.37;26.59;101401.47;1701836;83;21316;-76
2021/10/10 11:41:29;;;;;;;10.80;4.60;;;;;;;15.41;26.63;101392.32;1716258;82;21387;-76
2021/10/10 11:44:51;;;;;;;9.60;4.22;;;;;;;15.40;26.16;101394.22;1703679;83;21304;-76
2021/10/10 11:47:57;;;;;;;12.55;4.72;;;;;;;15.36;26.16;101393.39;1703561;83;21708;-76
2021/10/10 11:51:02;;;;;;;8.78;4.87;;;;;;;15.27;26.35;101392.57;1703637;83;21894;-76
2021/10/10 11:54:07;;;;;;;8.93;5.37;;;;;;;15.20;26.69;101388.31;1703925;83;21181;-76
2021/10/10 11:57:15;;;;;;;15.65;5.53;;;;;;;15.16;26.83;101386.10;1703327;83;21335;-76
2021/10/10 12:00:22;;;;;;;14.85;6.55;;;;;;;15.13;27.01;101380.41;1703149;82;21272;-76
2021/10/10 12:03:28;;;;;;;16.15;6.30;;;;;;;15.12;27.08;101384.22;1703513;83;21820;-76
2021/10/10 12:06:32;;;;;;;9.50;5.85;;;;;;;15.13;27.15;101386.45;1701491;83;21879;-76
2021/10/10 12:09:39;;;;;;;9.43;6.00;;;;;;;15.13;27.00;101373.53;1702123;83;21629;-76
2021/10/10 12:12:45;;;;;;;8.98;4.92;;;;;;;15.14;27.22;101379.89;1704024;83;21368;-76
2021/10/10 12:15:53;;;;;;;13.88;5.40;;;;;;;15.09;27.52;101399.20;1701854;83;21261;-75
2021/10/10 12:19:08;;;;;;;19.95;5.90;;;;;;;15.05;27.73;101381.30;1731128;83;21178;-75
2021/10/10 12:22:22;;;;;;;15.93;5.87;;;;;;;15.04;27.78;101378.22;1728205;83;21197;-76
2021/10/10 12:25:54;;;;;;;13.10;5.05;;;;;;;15.04;27.94;101370.47;1727544;83;21330;-76
2021/10/10 12:29:32;;;;;;;10.98;5.40;;;;;;;15.00;27.79;101364.45;1717358;83;21332;-76
2021/10/10 12:32:38;;;;;;;14.75;5.67;;;;;;;14.96;27.99;101368.64;1726544;83;21969;-74
2021/10/10 12:35:44;;;;;;;14.73;5.65;;;;;;;14.96;28.25;101368.64;1726771;83;21205;-75
2021/10/10 12:38:58;;;;;;;14.65;5.17;;;;;;;14.96;28.34;101358.99;1726371;81;21185;-75
2021/10/10 12:42:05;;;;;;;18.67;5.55;;;;;;;14.95;27.96;101369.65;1727211;83;21177;-75
2021/10/10 12:45:21;;;;;;;22.85;5.80;;;;;;;14.94;28.14;101367.94;1727178;83;21323;-75
2021/10/10 12:48:25;;;;;;;15.35;6.75;;;;;;;14.92;29.19;101373.30;1724711;83;21871;-75
2021/10/10 12:51:30;;;;;;;23.60;8.75;;;;;;;14.83;29.62;101360.08;1692504;83;21312;-75
2021/10/10 12:54:36;;;;;;;16.73;6.33;;;;;;;14.78;29.68;101358.38;1727373;83;21311;-75
2021/10/10 12:57:45;;;;;;;13.62;5.62;;;;;;;14.72;29.67;101369.56;1725092;83;21335;-75
2021/10/10 13:00:53;;;;;;;14.78;5.67;;;;;;;14.67;29.44;101364.26;1699357;83;21228;-75
2021/10/10 13:04:04;;;;;;;15.03;5.85;;;;;;;14.60;29.81;101356.38;1689252;83;21383;-75
2021/10/10 13:07:12;;;;;;;13.50;6.22;;;;;;;14.58;29.98;101362.05;1696813;84;21843;-75
2021/10/10 13:10:17;;;;;;;15.55;5.75;;;;;;;14.54;30.10;101362.94;1718601;83;21374;-76
2021/10/10 13:13:24;;;;;;;15.75;6.60;;;;;;;14.51;30.13;101352.80;1696579;83;21252;-76
2021/10/10 13:16:29;;;;;;;23.52;6.40;;;;;;;14.48;30.06;101358.12;1717528;83;21769;-75
2021/10/10 13:19:35;;;;;;;14.43;6.87;;;;;;;14.44;30.21;101360.84;1726342;83;21213;-76
2021/10/10 13:22:41;;;;;;;22.25;7.17;;;;;;;14.42;30.04;101364.30;1717613;82;21343;-76
2021/10/10 13:25:46;;;;;;;16.65;7.85;;;;;;;14.40;30.22;101360.03;1726934;83;21332;-76
2021/10/10 13:28:52;;;;;;;15.63;8.98;;;;;;;14.38;30.14;101364.31;1718982;83;21263;-76
2021/10/10 13:31:59;;;;;;;26.12;8.18;;;;;;;14.36;30.15;101371.90;1726642;83;21233;-76
2021/10/10 13:35:05;;;;;;;19.30;7.95;;;;;;;14.33;30.15;101355.72;1719167;83;21367;-75
2021/10/10 13:38:11;;;;;;;18.52;6.25;;;;;;;14.29;30.42;101365.36;1718049;83;21824;-76
2021/10/10 13:41:16;;;;;;;12.33;5.33;;;;;;;14.27;30.41;101371.57;1690348;85;21331;-76
2021/10/10 13:44:22;;;;;;;9.85;5.08;;;;;;;14.20;30.11;101353.50;1717946;83;21322;-76
2021/10/10 13:47:28;;;;;;;11.18;5.03;;;;;;;14.15;30.00;101361.95;1717402;83;21323;-75
2021/10/10 13:50:34;;;;;;;16.12;5.17;;;;;;;14.07;30.06;101358.71;1716821;83;21323;-76
2021/10/10 13:53:41;;;;;;;12.37;4.67;;;;;;;14.03;30.19;101362.84;1748156;82;21184;-76
2021/10/10 13:56:47;;;;;;;12.68;5.62;;;;;;;13.97;30.41;101363.02;1747610;82;21208;-76
2021/10/10 13:59:54;;;;;;;11.45;4.40;;;;;;;13.92;30.59;101365.40;1745879;82;21743;-75
2021/10/10 14:03:03;;;;;;;10.48;4.25;;;;;;;13.88;30.70;101363.16;1746250;82;21691;-76
2021/10/10 14:06:10;;;;;;;18.57;9.70;;;;;;;13.84;30.85;101359.92;1746494;80;21769;-75
2021/10/10 14:09:16;;;;;;;30.32;13.88;;;;;;;13.79;30.87;101359.59;1746571;81;21176;-74
2021/10/10 14:12:23;;;;;;;25.10;8.88;;;;;;;13.74;30.75;101355.98;1748157;82;21722;-75
2021/10/10 14:15:28;;;;;;;10.00;5.30;;;;;;;13.70;30.74;101353.73;1748138;82;21612;-75
2021/10/10 14:18:34;;;;;;;13.13;5.80;;;;;;;13.66;30.63;101352.36;1746361;82;21234;-74
2021/10/10 14:21:38;;;;;;;12.65;4.95;;;;;;;13.61;30.56;101356.14;1747044;82;21196;-75
2021/10/10 14:24:43;;;;;;;20.23;5.37;;;;;;;13.57;30.69;101350.63;1759088;80;21336;-75
2021/10/10 14:27:50;;;;;;;15.23;4.95;;;;;;;13.52;30.75;101344.27;1760220;80;21190;-75
2021/10/10 14:31:02;;;;;;;10.43;4.50;;;;;;;13.47;30.89;101346.67;1738872;81;21345;-76